LSZR/ACH METAR and TAF weather

Enter ICAO airport designator
Station Type Date Time Source
LSZR METAR 2021/05/15 01:50 UTC NOAA

LSZR 150150Z AUTO VRB03KT CAVOK 09/06 Q1012


Station Type Date Time Source
LSZR Decoded METAR 2021/05/15 01:50 UTC NOAA

Saint Gallen-Altenrhein, Switzerland (LSZR) 47-29-06N 009-33-43E
May 14, 2021 - 09:50 PM EDT / 2021.05.15 0150 UTC
Wind: Variable at 3 MPH (3 KT):0
Visibility: greater than 7 mile(s):0
Temperature: 48 F (9 C)
Dew Point: 42 F (6 C)
Relative Humidity: 81%
Pressure (altimeter): 29.88 in. Hg (1012 hPa)
ob: LSZR 150150Z AUTO VRB03KT CAVOK 09/06 Q1012
cycle: 2

Station Type Date Time Source
LSZR TAF 2014/12/22 20:03 UTC NOAA

TAF
AMD LSZR 222054Z 2220/2224 CNL

Example: see airport list